Time;durP1;ratioP1;P1;durP2;ratioP2;P2;SDS_P1;SDS_P2;PMS_P1;PMS_P2;Temp;Humidity;BMP_temperature;BMP_pressure;BME280_temperature;BME280_humidity;BME280_pressure;Samples;Min_cycle;Max_cycle;Signal;HPM_P1;HPM_P2
2022/08/03 00:01:18;;;;;;;5.78;4.88;;;;;;;23.36;62.80;98629.63;5134546;27;20122;-92
2022/08/03 00:03:44;;;;;;;6.63;5.10;;;;;;;23.47;62.61;98634.19;5133942;27;20050;-91
2022/08/03 00:06:10;;;;;;;5.85;4.97;;;;;;;23.46;62.29;98632.44;5133056;27;20484;-92
2022/08/03 00:08:36;;;;;;;6.45;5.30;;;;;;;23.51;62.47;98637.50;5132538;27;20081;-93
2022/08/03 00:11:03;;;;;;;7.30;5.20;;;;;;;23.50;62.31;98628.50;5132487;27;20027;-93
2022/08/03 00:13:30;;;;;;;6.25;5.35;;;;;;;23.50;62.65;98633.91;5132976;27;20119;-92
2022/08/03 00:15:56;;;;;;;7.88;5.65;;;;;;;23.49;63.05;98642.22;5132470;27;20050;-92
2022/08/03 00:18:22;;;;;;;6.55;5.00;;;;;;;23.45;63.35;98641.59;5129629;27;20040;-93
2022/08/03 00:20:48;;;;;;;8.63;5.45;;;;;;;23.37;64.10;98646.78;5134283;27;20075;-93
2022/08/03 00:23:15;;;;;;;6.80;5.28;;;;;;;23.25;64.00;98637.81;5133910;27;20106;-92
2022/08/03 00:25:41;;;;;;;8.85;5.70;;;;;;;23.15;64.09;98626.81;5123543;27;20043;-92
2022/08/03 00:28:08;;;;;;;6.43;5.53;;;;;;;23.22;64.09;98639.88;5132343;27;20130;-92
2022/08/03 00:30:35;;;;;;;5.72;5.10;;;;;;;23.20;63.86;98631.00;5131354;27;20040;-93
2022/08/03 00:33:02;;;;;;;7.15;5.15;;;;;;;23.25;64.08;98640.50;5121944;27;20434;-93
2022/08/03 00:35:28;;;;;;;6.95;5.82;;;;;;;23.23;64.60;98644.34;5121272;28;20079;-92
2022/08/03 00:37:57;;;;;;;6.32;4.90;;;;;;;23.11;64.42;98619.91;5120255;28;20036;-94
2022/08/03 00:40:23;;;;;;;6.95;5.22;;;;;;;23.22;64.57;98642.59;5121245;28;20097;-93
2022/08/03 00:42:52;;;;;;;7.30;5.13;;;;;;;23.05;65.17;98628.56;5120041;28;20074;-93
2022/08/03 00:45:20;;;;;;;6.28;5.28;;;;;;;22.94;65.32;98621.25;5119693;27;20043;-93
2022/08/03 00:47:47;;;;;;;7.63;5.53;;;;;;;23.02;65.53;98638.78;5119130;28;20039;-93
2022/08/03 00:50:14;;;;;;;7.63;5.30;;;;;;;23.04;65.94;98647.66;5119248;28;20031;-92
2022/08/03 00:52:40;;;;;;;7.90;5.40;;;;;;;23.00;65.98;98646.16;5118878;28;20071;-93
2022/08/03 00:55:12;;;;;;;6.57;5.18;;;;;;;22.87;66.01;98632.72;5119074;28;20039;-92
2022/08/03 00:57:41;;;;;;;6.97;5.22;;;;;;;22.88;66.87;98654.28;5119621;28;20468;-92
2022/08/03 01:00:09;;;;;;;6.07;5.47;;;;;;;22.66;67.14;98630.72;5118402;28;20035;-93
2022/08/03 01:02:35;;;;;;;8.35;5.30;;;;;;;22.63;67.21;98639.09;5118627;28;20055;-94
2022/08/03 01:05:03;;;;;;;6.65;5.55;;;;;;;22.52;67.81;98630.94;5119369;28;20131;-93
2022/08/03 01:07:41;;;;;;;6.80;5.53;;;;;;;22.46;68.31;98651.25;5119081;28;20063;-92
2022/08/03 01:10:16;;;;;;;6.47;5.30;;;;;;;22.26;68.90;98636.53;5119020;28;20107;-92
2022/08/03 01:12:47;;;;;;;6.88;5.43;;;;;;;22.27;69.13;98646.41;5119709;28;20130;-92
2022/08/03 01:15:23;;;;;;;6.32;5.32;;;;;;;22.29;69.45;98658.00;5118164;28;20040;-91
2022/08/03 01:17:55;;;;;;;6.60;5.88;;;;;;;22.26;69.33;98630.28;5118131;28;20035;-93
2022/08/03 01:20:25;;;;;;;7.43;5.47;;;;;;;22.16;69.55;98619.22;5119442;28;20040;-93
2022/08/03 01:23:09;;;;;;;8.45;5.28;;;;;;;22.12;69.16;98621.34;5118888;28;20040;-93
2022/08/03 01:25:54;;;;;;;5.95;5.35;;;;;;;22.19;69.43;98635.25;5119191;28;20518;-93
2022/08/03 01:28:38;;;;;;;8.52;5.75;;;;;;;22.11;69.65;98627.72;5118290;28;20040;-94
2022/08/03 01:31:09;;;;;;;7.28;5.80;;;;;;;22.11;69.53;98614.19;5117903;28;20044;-95
2022/08/03 01:33:39;;;;;;;6.70;5.60;;;;;;;22.26;69.55;98625.72;5119199;28;20039;-94
2022/08/03 01:36:11;;;;;;;8.77;6.03;;;;;;;22.24;69.66;98607.84;5119645;28;20063;-94
2022/08/03 01:38:42;;;;;;;6.90;6.20;;;;;;;22.36;69.91;98620.44;5120168;28;20108;-94
2022/08/03 01:41:12;;;;;;;7.72;6.85;;;;;;;22.25;69.90;98606.84;5119205;28;20032;-94
2022/08/03 01:43:41;;;;;;;8.52;7.40;;;;;;;22.23;70.48;98612.41;5118410;28;20374;-93
2022/08/03 01:46:10;;;;;;;9.30;6.93;;;;;;;22.22;70.74;98607.06;5118361;28;20130;-93
2022/08/03 01:48:38;;;;;;;7.72;6.90;;;;;;;22.18;70.64;98611.84;5117851;28;20043;-94
2022/08/03 01:51:06;;;;;;;8.45;6.70;;;;;;;22.20;70.93;98623.44;5118204;28;20046;-94
2022/08/03 01:53:34;;;;;;;10.00;7.35;;;;;;;22.18;71.11;98628.09;5118475;28;20047;-94
2022/08/03 01:56:02;;;;;;;9.48;7.35;;;;;;;22.09;71.44;98618.00;5117914;28;20047;-94
2022/08/03 01:58:30;;;;;;;12.35;7.65;;;;;;;22.04;71.73;98625.63;5118598;28;20048;-94
2022/08/03 02:00:59;;;;;;;10.10;7.53;;;;;;;21.86;72.55;98607.09;5118914;28;20047;-93
2022/08/03 02:03:28;;;;;;;9.95;7.45;;;;;;;21.89;72.66;98627.66;5119907;28;20401;-94
2022/08/03 02:05:56;;;;;;;8.38;7.05;;;;;;;21.69;74.29;98621.88;5118572;28;20019;-94
2022/08/03 02:08:24;;;;;;;8.60;7.30;;;;;;;21.62;73.87;98617.94;5118320;28;20146;-92
2022/08/03 02:10:51;;;;;;;8.02;7.07;;;;;;;21.46;74.64;98612.78;5117806;28;20119;-93
2022/08/03 02:13:19;;;;;;;9.80;7.15;;;;;;;21.53;74.87;98629.41;5117661;28;20074;-93
2022/08/03 02:15:47;;;;;;;8.57;7.35;;;;;;;21.39;75.25;98616.88;5117353;28;20043;-93
2022/08/03 02:18:14;;;;;;;8.57;7.68;;;;;;;21.30;75.75;98617.56;5118091;28;20043;-93
2022/08/03 02:20:43;;;;;;;9.63;7.00;;;;;;;21.30;75.86;98620.28;5117815;28;20056;-93
2022/08/03 02:23:09;;;;;;;;;;;;;;;21.29;76.83;98632.91;5118086;28;20097;-93
2022/08/03 02:25:40;;;;;;;7.72;6.85;;;;;;;21.07;77.25;98598.47;5119216;28;19920;-94
2022/08/03 02:28:10;;;;;;;11.10;7.50;;;;;;;21.17;76.83;98622.16;5119805;28;20504;-93
2022/08/03 02:30:39;;;;;;;9.55;7.57;;;;;;;21.13;77.72;98614.25;5119272;28;20055;-93
2022/08/03 02:33:11;;;;;;;8.48;6.75;;;;;;;21.10;77.63;98614.50;5117882;28;20068;-93
2022/08/03 02:35:40;;;;;;;7.82;6.93;;;;;;;21.10;77.63;98622.59;5117747;28;20047;-92
2022/08/03 02:38:10;;;;;;;8.13;6.95;;;;;;;20.99;77.54;98594.59;5118854;28;20040;-94
2022/08/03 02:40:39;;;;;;;9.02;6.82;;;;;;;20.98;77.71;98599.16;5118076;28;20485;-93
2022/08/03 02:43:07;;;;;;;;;;;;;;;21.11;77.50;98627.03;5118018;28;20058;-93
2022/08/03 02:45:38;;;;;;;8.82;6.57;;;;;;;21.13;77.51;98619.66;5116662;28;20006;-93
2022/08/03 02:48:05;;;;;;;7.20;6.50;;;;;;;21.04;78.25;98611.38;5117245;28;20066;-93
2022/08/03 02:50:33;;;;;;;8.38;6.75;;;;;;;21.09;77.45;98620.84;5117064;28;20473;-93
2022/08/03 02:53:01;;;;;;;8.23;7.37;;;;;;;20.97;78.74;98602.84;5118021;28;20420;-93
2022/08/03 02:55:32;;;;;;;9.75;7.15;;;;;;;21.09;78.16;98604.63;5117298;28;20097;-93
2022/08/03 02:57:59;;;;;;;10.05;7.60;;;;;;;21.06;78.30;98614.81;5118822;28;20377;-93
2022/08/03 03:00:26;;;;;;;10.23;7.07;;;;;;;21.04;78.77;98614.06;5118374;28;20071;-94
2022/08/03 03:02:52;;;;;;;9.52;7.15;;;;;;;21.00;78.92;98613.41;5116027;28;20039;-93
2022/08/03 03:05:19;;;;;;;11.27;7.50;;;;;;;20.92;78.91;98610.41;5116685;28;20039;-93
2022/08/03 03:07:46;;;;;;;7.53;6.75;;;;;;;20.86;78.89;98609.03;5117072;28;20124;-94
2022/08/03 03:10:12;;;;;;;10.07;7.57;;;;;;;20.87;79.08;98616.13;5117103;28;20043;-94
2022/08/03 03:12:41;;;;;;;9.60;7.53;;;;;;;20.86;79.21;98619.84;5117449;28;20040;-93
2022/08/03 03:15:08;;;;;;;10.45;7.63;;;;;;;20.71;79.32;98602.00;5117494;28;20040;-94
2022/08/03 03:17:36;;;;;;;8.95;7.80;;;;;;;20.74;79.37;98609.88;5117260;28;20040;-93
2022/08/03 03:20:03;;;;;;;8.73;7.60;;;;;;;20.80;79.90;98630.22;5116694;28;20050;-93
2022/08/03 03:22:32;;;;;;;9.43;7.78;;;;;;;20.73;79.77;98627.06;5117366;28;20048;-94
2022/08/03 03:24:58;;;;;;;9.45;7.88;;;;;;;20.59;79.50;98611.84;5117250;28;20039;-93
2022/08/03 03:27:25;;;;;;;11.35;7.55;;;;;;;20.55;80.39;98618.41;5116511;28;20044;-93
2022/08/03 03:29:53;;;;;;;12.05;8.13;;;;;;;20.55;79.58;98620.25;5115959;28;20043;-94
2022/08/03 03:32:19;;;;;;;11.10;7.97;;;;;;;20.46;80.92;98619.91;5115922;28;20047;-94
2022/08/03 03:34:46;;;;;;;9.20;7.95;;;;;;;20.34;81.29;98609.09;5116182;28;20109;-94
2022/08/03 03:37:12;;;;;;;8.90;8.00;;;;;;;20.23;81.97;98609.84;5117002;28;20085;-93
2022/08/03 03:39:38;;;;;;;10.95;8.25;;;;;;;20.20;82.50;98613.63;5117640;28;20040;-93
2022/08/03 03:42:05;;;;;;;10.50;8.43;;;;;;;20.18;82.51;98606.59;5116883;28;20093;-94
2022/08/03 03:44:31;;;;;;;11.85;8.68;;;;;;;20.09;83.22;98600.84;5117683;28;20043;-94
2022/08/03 03:46:59;;;;;;;9.90;8.07;;;;;;;20.16;82.91;98614.78;5116905;28;20098;-93
2022/08/03 03:49:25;;;;;;;11.63;8.30;;;;;;;20.15;83.11;98618.47;5117246;28;20044;-92
2022/08/03 03:51:52;;;;;;;10.30;8.23;;;;;;;20.15;83.76;98623.03;5118323;28;20039;-91
2022/08/03 03:54:18;;;;;;;9.95;8.30;;;;;;;20.15;83.78;98621.19;5117682;28;20496;-93
2022/08/03 03:56:45;;;;;;;10.07;8.43;;;;;;;20.07;83.33;98624.41;5117497;28;20511;-93
2022/08/03 03:59:11;;;;;;;9.55;7.97;;;;;;;20.17;83.97;98638.13;5115691;28;20052;-93
2022/08/03 04:01:37;;;;;;;10.10;8.73;;;;;;;19.95;83.92;98613.56;5115918;28;20040;-92
2022/08/03 04:16:10;;;;;;;9.70;8.30;;;;;;;19.96;86.00;98643.16;5072761;28;20052;-94
2022/08/03 04:18:39;;;;;;;10.55;8.30;;;;;;;19.85;85.44;98641.19;5073251;28;20044;-94
2022/08/03 04:21:10;;;;;;;;;;;;;;;19.97;86.03;98668.31;5075502;28;20067;-93
2022/08/03 04:23:40;;;;;;;11.77;9.10;;;;;;;19.82;86.47;98638.69;5074950;28;19920;-95
2022/08/03 04:26:08;;;;;;;10.70;8.70;;;;;;;19.82;86.73;98652.19;5074022;28;20044;-95
2022/08/03 04:28:38;;;;;;;10.10;8.30;;;;;;;19.98;86.28;98673.63;5072816;28;20041;-94
2022/08/03 04:31:06;;;;;;;10.90;9.60;;;;;;;19.83;86.29;98642.25;5072501;28;20033;-93
2022/08/03 04:33:34;;;;;;;10.30;9.10;;;;;;;19.88;86.40;98651.75;5073186;28;20073;-94
2022/08/03 04:36:03;;;;;;;10.23;9.02;;;;;;;20.01;86.56;98672.53;5073048;28;20577;-95
2022/08/03 04:38:31;;;;;;;11.88;8.65;;;;;;;19.90;86.31;98657.91;5074463;28;20044;-93
2022/08/03 04:40:58;;;;;;;11.10;8.23;;;;;;;19.95;86.07;98657.63;5075674;28;20037;-93
2022/08/03 04:43:26;;;;;;;10.30;8.00;;;;;;;20.05;86.63;98668.66;5075257;28;20033;-95
2022/08/03 04:45:55;;;;;;;9.38;8.30;;;;;;;20.11;86.74;98674.50;5075297;28;20063;-93
2022/08/03 04:48:22;;;;;;;10.50;8.43;;;;;;;20.03;86.18;98657.09;5074100;28;20033;-93
2022/08/03 04:50:48;;;;;;;10.85;8.93;;;;;;;20.03;86.33;98660.66;5072936;28;20065;-92
2022/08/03 04:53:16;;;;;;;9.98;8.07;;;;;;;20.10;86.72;98677.31;5072496;28;20123;-93
2022/08/03 04:55:43;;;;;;;10.45;8.63;;;;;;;20.14;86.37;98668.03;5073656;28;20055;-95
2022/08/03 04:58:09;;;;;;;10.45;8.30;;;;;;;20.16;87.09;98666.09;5073948;28;20098;-94
2022/08/03 05:00:35;;;;;;;9.85;7.90;;;;;;;20.23;86.54;98670.13;5074149;28;20131;-93
2022/08/03 05:03:02;;;;;;;12.82;8.57;;;;;;;20.27;86.28;98673.47;5073563;28;20036;-93
2022/08/03 05:05:28;;;;;;;10.05;8.63;;;;;;;20.28;86.88;98667.97;5074177;28;20553;-92
2022/08/03 05:07:55;;;;;;;11.02;8.20;;;;;;;20.49;85.95;98691.75;5073858;28;20048;-94
2022/08/03 05:10:21;;;;;;;10.70;8.38;;;;;;;20.56;86.18;98700.28;5073729;28;20044;-93
2022/08/03 05:12:48;;;;;;;9.80;8.18;;;;;;;20.75;84.68;98683.72;5073737;28;20043;-92
2022/08/03 05:15:14;;;;;;;9.90;7.65;;;;;;;21.27;83.01;98690.81;5072925;28;20390;-93
2022/08/03 05:17:40;;;;;;;9.45;8.10;;;;;;;21.69;79.86;98686.00;5072861;28;20033;-93
2022/08/03 05:20:09;;;;;;;10.65;7.95;;;;;;;22.13;77.58;98695.31;5073756;28;20398;-94
2022/08/03 05:22:35;;;;;;;10.88;7.65;;;;;;;22.28;76.23;98671.66;5070546;28;20099;-94
2022/08/03 05:25:02;;;;;;;8.48;7.18;;;;;;;22.51;74.71;98670.75;5059884;28;20502;-93
2022/08/03 05:27:28;;;;;;;9.60;7.38;;;;;;;22.76;74.07;98690.50;5060683;28;20073;-94
2022/08/03 05:29:54;;;;;;;8.18;6.97;;;;;;;22.89;73.05;98674.97;5060939;28;20044;-94
2022/08/03 05:32:20;;;;;;;7.95;7.15;;;;;;;23.11;71.70;98679.59;5059286;28;20041;-94
2022/08/03 05:34:46;;;;;;;10.23;7.25;;;;;;;23.39;70.54;98685.50;5059811;28;20095;-94
2022/08/03 05:37:13;;;;;;;9.77;7.00;;;;;;;23.53;68.82;98671.69;5059407;28;20515;-93
2022/08/03 05:39:40;;;;;;;10.45;6.45;;;;;;;23.72;68.14;98676.44;5061028;28;20112;-94
2022/08/03 05:42:06;;;;;;;8.93;6.90;;;;;;;23.85;67.67;98668.16;5062410;28;20048;-94
2022/08/03 05:44:32;;;;;;;8.25;6.30;;;;;;;23.96;67.08;98672.69;5063395;28;20040;-94
2022/08/03 05:46:59;;;;;;;8.55;6.70;;;;;;;24.09;66.72;98667.97;5061737;28;20037;-94
2022/08/03 05:49:25;;;;;;;12.00;6.75;;;;;;;24.22;66.22;98673.22;5061287;28;20041;-95
2022/08/03 05:51:51;;;;;;;8.45;6.38;;;;;;;24.30;65.92;98667.13;5060051;28;20033;-94
2022/08/03 05:54:18;;;;;;;8.10;6.78;;;;;;;24.33;65.28;98659.59;5060393;28;20052;-95
2022/08/03 05:56:45;;;;;;;10.45;6.65;;;;;;;24.44;65.21;98666.84;5060653;28;20052;-94
2022/08/03 05:59:11;;;;;;;8.13;6.00;;;;;;;24.55;64.30;98674.94;5061413;28;20037;-94
2022/08/03 06:01:36;;;;;;;9.18;6.72;;;;;;;24.65;63.96;98663.28;5060561;28;20132;-95
2022/08/03 06:04:03;;;;;;;7.80;6.53;;;;;;;24.88;63.64;98680.31;5057909;28;20401;-95
2022/08/03 06:06:29;;;;;;;8.27;6.57;;;;;;;24.79;63.32;98662.94;5058027;28;20049;-95
2022/08/03 06:08:55;;;;;;;9.77;6.55;;;;;;;25.02;62.84;98678.06;5058610;28;20560;-93
2022/08/03 06:11:23;;;;;;;8.90;6.45;;;;;;;25.01;62.15;98664.63;5059547;28;20036;-94
2022/08/03 06:13:49;;;;;;;;;;;;;;;25.20;62.01;98691.13;5058931;28;20040;-94
2022/08/03 06:16:15;;;;;;;12.13;6.38;;;;;;;25.14;61.82;98669.84;5057268;28;19927;-95
2022/08/03 06:18:41;;;;;;;9.70;6.47;;;;;;;25.20;61.20;98662.03;5057692;28;20060;-94
2022/08/03 06:21:07;;;;;;;9.05;6.50;;;;;;;25.33;60.42;98664.53;5058950;28;20037;-94
2022/08/03 06:23:33;;;;;;;15.40;6.22;;;;;;;25.56;60.38;98692.38;5059675;28;20041;-95
2022/08/03 06:26:00;;;;;;;11.35;6.40;;;;;;;25.53;60.00;98673.59;5058496;28;20136;-95
2022/08/03 06:28:27;;;;;;;12.45;5.90;;;;;;;25.70;59.36;98684.81;5059395;28;20076;-94
2022/08/03 06:30:53;;;;;;;10.13;6.53;;;;;;;25.75;57.87;98668.94;5050538;28;20052;-94
2022/08/03 06:33:19;;;;;;;7.38;5.00;;;;;;;25.87;55.38;98689.56;5057992;28;20041;-94
2022/08/03 06:35:45;;;;;;;6.47;4.47;;;;;;;25.97;52.91;98692.38;5054136;28;20037;-93
2022/08/03 06:38:11;;;;;;;5.60;4.75;;;;;;;26.19;53.98;98699.41;5058559;28;20045;-92
2022/08/03 06:40:38;;;;;;;8.50;4.90;;;;;;;26.19;52.84;98683.91;5057754;28;20029;-92
2022/08/03 06:43:06;;;;;;;6.38;4.70;;;;;;;26.21;51.35;98702.84;5058218;28;20076;-93
2022/08/03 06:45:34;;;;;;;7.03;4.72;;;;;;;26.24;51.75;98691.69;5059005;28;20036;-93
2022/08/03 06:48:01;;;;;;;6.60;5.07;;;;;;;26.46;51.39;98695.09;5058029;28;20621;-93
2022/08/03 06:50:27;;;;;;;7.13;4.70;;;;;;;26.58;51.01;98692.13;5057608;28;20073;-93
2022/08/03 06:52:53;;;;;;;6.53;4.60;;;;;;;26.43;49.01;98697.13;5056719;28;20065;-94
2022/08/03 06:55:19;;;;;;;5.75;4.38;;;;;;;26.50;50.40;98694.69;5058271;28;20406;-94
2022/08/03 06:57:45;;;;;;;6.32;4.60;;;;;;;26.68;48.32;98694.84;5057995;28;20037;-93
2022/08/03 07:00:12;;;;;;;8.00;4.20;;;;;;;26.97;47.70;98693.91;5057310;28;20045;-94
2022/08/03 07:02:40;;;;;;;7.10;4.30;;;;;;;26.84;47.56;98673.25;5054893;28;20045;-95
2022/08/03 07:05:07;;;;;;;4.72;4.03;;;;;;;26.91;45.49;98697.22;5055921;28;20402;-93
2022/08/03 07:07:33;;;;;;;5.32;4.03;;;;;;;27.18;45.42;98702.78;5056765;28;20114;-94
2022/08/03 07:09:59;;;;;;;5.03;4.25;;;;;;;27.29;44.95;98676.34;5058286;28;20490;-93
2022/08/03 07:12:26;;;;;;;5.32;4.15;;;;;;;27.25;44.03;98671.16;5058481;28;20101;-93
2022/08/03 07:14:53;;;;;;;5.32;4.00;;;;;;;27.55;43.25;98684.69;5057508;28;20052;-95
2022/08/03 07:17:19;;;;;;;5.05;4.05;;;;;;;27.77;41.90;98702.53;5053817;28;20048;-90
2022/08/03 07:19:46;;;;;;;5.45;4.20;;;;;;;27.48;43.14;98681.72;5056440;28;20098;-94
2022/08/03 07:22:12;;;;;;;7.57;3.90;;;;;;;27.56;42.84;98679.06;5055933;28;20029;-94
2022/08/03 07:24:40;;;;;;;5.35;4.20;;;;;;;27.44;43.39;98683.00;5052743;28;20111;-94
2022/08/03 07:27:06;;;;;;;5.93;4.20;;;;;;;27.86;42.96;98682.50;5057816;28;20049;-94
2022/08/03 07:29:33;;;;;;;5.47;4.03;;;;;;;27.95;41.21;98699.88;5057841;28;20045;-94
2022/08/03 07:32:00;;;;;;;4.65;3.92;;;;;;;27.77;40.55;98689.72;5055013;28;20033;-95
2022/08/03 07:34:26;;;;;;;5.65;4.18;;;;;;;27.70;41.26;98691.34;5054621;28;20037;-92
2022/08/03 07:36:53;;;;;;;5.22;4.10;;;;;;;27.96;41.00;98687.94;5055579;28;20045;-91
2022/08/03 07:39:19;;;;;;;4.65;3.80;;;;;;;27.98;40.13;98700.44;5051785;28;20387;-91
2022/08/03 07:41:46;;;;;;;12.70;4.20;;;;;;;27.72;41.05;98683.88;5054874;28;20041;-93
2022/08/03 07:44:12;;;;;;;4.93;4.25;;;;;;;28.14;40.55;98691.53;5050204;28;20445;-93
2022/08/03 07:46:38;;;;;;;4.53;3.80;;;;;;;28.46;40.32;98699.19;5057684;28;20087;-93
2022/08/03 07:49:04;;;;;;;4.57;3.78;;;;;;;28.80;39.23;98692.13;5058308;28;20465;-93
2022/08/03 07:51:30;;;;;;;4.53;3.65;;;;;;;28.85;38.59;98692.53;5057904;28;20037;-94
2022/08/03 07:53:59;;;;;;;4.38;3.83;;;;;;;28.69;37.84;98679.56;5058312;28;20059;-93
2022/08/03 07:56:25;;;;;;;4.68;3.47;;;;;;;28.97;38.79;98690.38;5055733;28;20063;-93
2022/08/03 07:58:52;;;;;;;5.72;3.88;;;;;;;28.55;38.80;98685.63;5055521;28;20045;-92
2022/08/03 08:01:18;;;;;;;6.90;3.83;;;;;;;28.67;39.18;98685.22;5053429;28;20045;-92
2022/08/03 08:03:44;;;;;;;6.00;4.03;;;;;;;29.16;39.01;98678.38;5052286;28;20046;-94
2022/08/03 08:06:10;;;;;;;5.82;3.97;;;;;;;29.36;37.72;98689.94;5051643;28;20051;-91
2022/08/03 08:08:37;;;;;;;5.47;3.95;;;;;;;29.60;37.22;98687.34;5052690;28;20040;-92
2022/08/03 08:11:04;;;;;;;13.60;4.55;;;;;;;29.66;36.53;98683.91;5052832;28;20037;-93
2022/08/03 08:13:30;;;;;;;11.70;4.47;;;;;;;29.63;37.14;98670.56;5053235;28;20032;-93
2022/08/03 08:15:57;;;;;;;25.70;4.95;;;;;;;29.61;35.38;98683.56;5051374;28;20053;-94
2022/08/03 08:18:23;;;;;;;5.55;4.00;;;;;;;29.61;36.48;98686.31;5054411;28;20041;-92
2022/08/03 08:20:49;;;;;;;7.10;3.88;;;;;;;29.96;35.11;98678.91;5051599;28;20036;-94
2022/08/03 08:23:21;;;;;;;10.43;4.18;;;;;;;29.94;34.56;98683.69;5052193;28;20029;-92
2022/08/03 08:25:48;;;;;;;5.47;3.92;;;;;;;30.16;35.11;98665.75;5053747;28;20254;-93
2022/08/03 08:28:16;;;;;;;6.45;3.85;;;;;;;30.47;34.42;98685.19;5050707;28;20091;-93
2022/08/03 08:30:42;;;;;;;4.57;3.50;;;;;;;30.67;32.73;98671.13;5051618;28;20036;-94
2022/08/03 08:33:08;;;;;;;4.95;3.55;;;;;;;30.63;33.30;98670.63;5050890;28;20359;-92
2022/08/03 08:35:34;;;;;;;6.18;3.70;;;;;;;30.51;34.66;98671.97;5048804;28;20029;-93
2022/08/03 08:38:00;;;;;;;5.15;3.95;;;;;;;30.66;34.48;98661.16;5052385;28;20091;-91
2022/08/03 08:40:27;;;;;;;4.68;3.67;;;;;;;30.48;32.74;98675.94;5051040;28;20052;-95
2022/08/03 08:42:53;;;;;;;4.30;3.25;;;;;;;30.42;33.23;98671.13;5050956;28;20565;-93
2022/08/03 08:45:20;;;;;;;4.88;3.50;;;;;;;30.84;32.73;98664.59;5041843;28;20521;-91
2022/08/03 08:47:48;;;;;;;5.80;3.70;;;;;;;30.87;32.97;98664.28;5051106;28;20040;-93
2022/08/03 08:50:17;;;;;;;4.50;3.73;;;;;;;31.14;31.74;98669.53;5052090;28;20059;-91
2022/08/03 08:52:49;;;;;;;5.35;3.67;;;;;;;31.39;31.72;98676.69;5051831;28;20118;-91
2022/08/03 08:55:19;;;;;;;4.78;3.65;;;;;;;31.58;31.51;98680.09;5045061;28;21251;-93
2022/08/03 08:57:48;;;;;;;6.32;4.03;;;;;;;31.62;30.56;98667.69;5051222;28;20041;-94
2022/08/03 09:00:15;;;;;;;5.70;3.90;;;;;;;31.25;30.45;98678.28;5053215;28;20045;-90
2022/08/03 09:02:44;;;;;;;12.55;4.38;;;;;;;30.53;31.38;98689.13;5056435;28;20470;-93
2022/08/03 09:05:12;;;;;;;6.10;3.60;;;;;;;30.60;31.38;98665.47;5052534;28;20049;-92
2022/08/03 09:07:38;;;;;;;;;;;;;;;31.07;30.84;98692.22;5055862;28;20037;-94
2022/08/03 09:10:05;;;;;;;5.95;3.70;;;;;;;31.39;30.54;98698.66;5056661;28;19931;-93
2022/08/03 09:12:37;;;;;;;6.03;3.77;;;;;;;31.61;30.74;98688.81;5055607;28;20045;-93
2022/08/03 09:15:16;;;;;;;5.80;3.70;;;;;;;32.02;29.73;98688.66;5050967;28;20079;-93
2022/08/03 09:17:44;;;;;;;4.72;3.78;;;;;;;32.19;29.68;98680.31;5055614;28;20061;-94
2022/08/03 09:20:10;;;;;;;4.63;3.50;;;;;;;31.77;29.17;98682.38;5055682;28;20075;-91
2022/08/03 09:22:54;;;;;;;4.72;3.88;;;;;;;31.95;29.77;98682.13;5054279;28;20094;-93
2022/08/03 09:25:27;;;;;;;5.82;3.72;;;;;;;32.09;30.35;98670.38;5051469;28;20123;-95
2022/08/03 09:27:53;;;;;;;8.27;3.88;;;;;;;32.31;28.65;98673.31;5052655;28;20044;-92
2022/08/03 09:30:20;;;;;;;6.35;4.00;;;;;;;32.49;29.05;98657.38;5053253;28;20034;-92
2022/08/03 09:32:47;;;;;;;5.55;3.80;;;;;;;32.68;28.64;98674.44;5054199;28;20051;-95
2022/08/03 09:35:13;;;;;;;6.82;3.50;;;;;;;32.78;28.54;98665.94;5055400;28;20376;-91
2022/08/03 09:37:39;;;;;;;5.40;3.80;;;;;;;32.80;28.33;98650.91;5054083;28;20120;-92
2022/08/03 09:40:06;;;;;;;6.28;3.40;;;;;;;32.87;28.62;98643.63;5055361;28;20037;-93
2022/08/03 09:42:36;;;;;;;4.47;3.72;;;;;;;33.06;28.58;98656.03;5054895;28;20083;-90
2022/08/03 09:45:04;;;;;;;4.43;3.72;;;;;;;33.17;27.81;98660.22;5056923;28;20070;-95
2022/08/03 09:47:32;;;;;;;5.20;3.60;;;;;;;33.12;27.29;98643.41;5055468;28;20041;-95
2022/08/03 09:50:00;;;;;;;4.43;3.95;;;;;;;33.06;27.46;98657.91;5055988;28;20037;-92
2022/08/03 09:52:33;;;;;;;5.25;3.90;;;;;;;32.81;27.88;98636.09;5053232;28;20033;-92
2022/08/03 09:55:00;;;;;;;4.82;3.53;;;;;;;32.78;28.41;98650.25;5055931;28;20091;-94
2022/08/03 09:57:27;;;;;;;5.03;3.90;;;;;;;32.97;28.15;98646.13;5051105;28;20037;-91
2022/08/03 10:00:04;;;;;;;5.40;3.70;;;;;;;33.19;27.82;98649.00;5053773;28;20041;-91
2022/08/03 10:02:30;;;;;;;5.97;4.03;;;;;;;33.16;27.54;98633.72;5054919;28;20045;-91
2022/08/03 10:04:56;;;;;;;4.30;3.60;;;;;;;33.40;27.31;98639.97;5052398;28;20052;-93
2022/08/03 10:07:23;;;;;;;4.85;3.80;;;;;;;33.28;27.41;98642.34;5056508;28;20498;-94
2022/08/03 10:09:54;;;;;;;5.55;3.80;;;;;;;33.37;27.21;98640.34;5055561;28;20051;-95
2022/08/03 10:12:21;;;;;;;4.82;3.47;;;;;;;33.52;27.10;98643.94;5052620;28;20041;-92
2022/08/03 10:14:47;;;;;;;5.53;3.58;;;;;;;33.62;26.96;98638.19;5052941;28;20045;-91
2022/08/03 10:17:13;;;;;;;7.00;3.63;;;;;;;33.33;26.27;98640.75;5054675;28;20509;-92
2022/08/03 10:19:40;;;;;;;4.60;3.65;;;;;;;32.88;26.40;98634.31;5054448;28;20095;-93
2022/08/03 10:22:11;;;;;;;4.75;3.60;;;;;;;31.92;27.76;98625.59;5056041;28;20033;-93
2022/08/03 10:24:46;;;;;;;4.78;3.72;;;;;;;32.42;27.54;98631.63;5055133;28;20124;-94
2022/08/03 10:27:14;;;;;;;4.70;3.70;;;;;;;32.49;27.62;98612.47;5053371;28;20043;-96
2022/08/03 10:29:44;;;;;;;4.95;4.07;;;;;;;32.58;27.18;98625.16;5054803;28;20041;-94
2022/08/03 10:32:17;;;;;;;4.57;3.63;;;;;;;32.34;26.82;98635.28;5053489;28;20437;-92
2022/08/03 10:34:45;;;;;;;6.53;3.90;;;;;;;32.63;27.27;98622.69;5050164;28;20063;-91
2022/08/03 10:37:13;;;;;;;4.43;3.60;;;;;;;32.74;25.93;98629.63;5054650;28;20045;-94
2022/08/03 10:39:52;;;;;;;4.72;3.63;;;;;;;32.50;26.31;98601.25;5058046;28;20354;-94
2022/08/03 10:42:20;;;;;;;4.60;3.80;;;;;;;32.68;26.14;98619.38;5051837;28;20040;-92
2022/08/03 10:44:51;;;;;;;5.60;4.20;;;;;;;32.86;25.92;98625.38;5053742;28;20039;-94
2022/08/03 10:47:18;;;;;;;4.43;3.50;;;;;;;32.89;26.10;98618.66;5052015;28;20053;-93
2022/08/03 10:49:46;;;;;;;4.35;3.50;;;;;;;33.05;25.24;98614.84;5051047;28;20407;-95
2022/08/03 10:52:12;;;;;;;5.93;3.70;;;;;;;33.20;25.06;98607.47;5050917;28;20061;-94
2022/08/03 10:57:45;;;;;;;4.03;3.60;;;;;;;33.40;24.48;98595.84;5138598;27;20347;-91
2022/08/03 11:00:12;;;;;;;4.22;3.63;;;;;;;33.03;23.95;98606.78;5111290;28;20451;-92
2022/08/03 11:03:01;;;;;;;5.57;3.63;;;;;;;33.27;24.93;98608.44;5111186;28;20038;-92
2022/08/03 11:05:29;;;;;;;4.28;3.53;;;;;;;33.49;24.40;98612.09;5107921;28;20089;-93
2022/08/03 11:08:20;;;;;;;4.57;3.60;;;;;;;33.68;24.11;98604.28;5109843;28;20050;-92
2022/08/03 11:10:47;;;;;;;6.25;3.53;;;;;;;33.74;24.18;98592.50;5110283;28;20460;-92
2022/08/03 11:13:16;;;;;;;4.03;3.47;;;;;;;33.86;23.90;98592.84;5109810;28;20093;-92
2022/08/03 11:15:45;;;;;;;4.30;3.50;;;;;;;34.01;23.04;98604.69;5107383;28;20035;-92
2022/08/03 11:18:12;;;;;;;4.82;3.50;;;;;;;33.78;23.32;98573.66;5109320;28;20523;-91
2022/08/03 11:20:49;;;;;;;5.23;3.63;;;;;;;33.76;23.91;98587.63;5108916;28;20078;-92
2022/08/03 11:23:17;;;;;;;5.38;3.75;;;;;;;33.40;24.58;98565.53;5109284;28;20142;-93
2022/08/03 11:26:10;;;;;;;4.43;3.40;;;;;;;33.64;24.54;98597.47;5109182;28;20788;-89
2022/08/03 11:28:38;;;;;;;4.18;3.50;;;;;;;33.29;24.26;98588.94;5106552;28;20039;-89
2022/08/03 11:31:56;;;;;;;4.00;3.60;;;;;;;33.62;23.69;98583.88;5108611;28;20039;-91
2022/08/03 11:34:23;;;;;;;;;;;;;;;33.10;24.82;98585.72;5109613;28;20195;-91
2022/08/03 11:37:17;;;;;;;4.17;3.40;;;;;;;33.11;23.88;98576.41;5110002;28;20399;-92
2022/08/03 11:39:45;;;;;;;4.97;3.67;;;;;;;33.23;24.74;98582.31;5106297;28;20055;-91
2022/08/03 11:42:43;;;;;;;5.32;3.63;;;;;;;33.43;24.89;98577.03;5108734;28;20031;-92
2022/08/03 11:45:11;;;;;;;5.00;3.88;;;;;;;33.72;24.00;98576.16;5106147;28;20055;-90
2022/08/03 11:47:38;;;;;;;8.10;3.88;;;;;;;33.56;23.94;98568.06;5109098;28;20044;-91
2022/08/03 11:50:05;;;;;;;4.78;3.50;;;;;;;33.54;23.80;98551.72;5106333;28;20048;-91
2022/08/03 11:52:35;;;;;;;4.35;3.78;;;;;;;33.44;24.27;98564.09;5109409;28;20063;-91
2022/08/03 11:55:01;;;;;;;5.20;3.85;;;;;;;33.45;24.25;98550.13;5108632;28;20370;-92